sensor_id;sensor_type;location;lat;lon;timestamp;pressure;altitude;pressure_sealevel;temperature
49557;BMP280;35462;45.048;7.666;2022-07-22T00:11:23;98953.78;;;33.09
49557;BMP280;35462;45.048;7.666;2022-07-22T00:26:39;98951.22;;;33.03
49557;BMP280;35462;45.048;7.666;2022-07-22T00:41:54;98947.47;;;32.92
49557;BMP280;35462;45.048;7.666;2022-07-22T00:57:11;98940.00;;;32.46
49557;BMP280;35462;45.048;7.666;2022-07-22T01:12:27;98932.69;;;32.48
49557;BMP280;35462;45.048;7.666;2022-07-22T01:27:43;98939.81;;;32.44
49557;BMP280;35462;45.048;7.666;2022-07-22T01:42:59;98943.88;;;32.35
49557;BMP280;35462;45.048;7.666;2022-07-22T01:58:16;98944.81;;;32.30
49557;BMP280;35462;45.048;7.666;2022-07-22T02:13:35;98952.16;;;32.13
49557;BMP280;35462;45.048;7.666;2022-07-22T02:28:51;98943.59;;;32.01
49557;BMP280;35462;45.048;7.666;2022-07-22T02:44:07;98937.75;;;31.98
49557;BMP280;35462;45.048;7.666;2022-07-22T02:59:23;98934.47;;;31.92
49557;BMP280;35462;45.048;7.666;2022-07-22T03:14:39;98937.41;;;31.79
49557;BMP280;35462;45.048;7.666;2022-07-22T03:29:55;98949.50;;;31.68
49557;BMP280;35462;45.048;7.666;2022-07-22T03:45:11;98964.09;;;31.56
49557;BMP280;35462;45.048;7.666;2022-07-22T04:00:29;98969.19;;;31.52
49557;BMP280;35462;45.048;7.666;2022-07-22T04:15:46;98971.22;;;31.51
49557;BMP280;35462;45.048;7.666;2022-07-22T04:31:03;98990.94;;;31.50
49557;BMP280;35462;45.048;7.666;2022-07-22T04:46:20;98995.16;;;31.58
49557;BMP280;35462;45.048;7.666;2022-07-22T05:01:36;99002.81;;;31.45
49557;BMP280;35462;45.048;7.666;2022-07-22T05:16:57;99005.56;;;31.45
49557;BMP280;35462;45.048;7.666;2022-07-22T05:32:14;99010.69;;;31.56
49557;BMP280;35462;45.048;7.666;2022-07-22T05:47:30;99004.47;;;31.78
49557;BMP280;35462;45.048;7.666;2022-07-22T06:02:46;99023.97;;;32.26
49557;BMP280;35462;45.048;7.666;2022-07-22T06:18:10;99034.41;;;32.82
49557;BMP280;35462;45.048;7.666;2022-07-22T06:33:27;99042.66;;;34.78
49557;BMP280;35462;45.048;7.666;2022-07-22T06:48:44;99042.28;;;36.16
49557;BMP280;35462;45.048;7.666;2022-07-22T07:04:00;99054.63;;;37.71
49557;BMP280;35462;45.048;7.666;2022-07-22T07:19:16;99061.34;;;37.89
49557;BMP280;35462;45.048;7.666;2022-07-22T07:34:32;99058.69;;;38.99
49557;BMP280;35462;45.048;7.666;2022-07-22T07:49:49;99062.69;;;40.14
49557;BMP280;35462;45.048;7.666;2022-07-22T08:05:07;99070.34;;;39.54
49557;BMP280;35462;45.048;7.666;2022-07-22T08:20:24;99065.16;;;39.37
49557;BMP280;35462;45.048;7.666;2022-07-22T08:35:41;99061.53;;;39.58
49557;BMP280;35462;45.048;7.666;2022-07-22T08:50:58;99061.25;;;39.76
49557;BMP280;35462;45.048;7.666;2022-07-22T09:06:22;99054.81;;;39.38
49557;BMP280;35462;45.048;7.666;2022-07-22T09:21:43;99053.00;;;39.90
49557;BMP280;35462;45.048;7.666;2022-07-22T09:37:11;99056.88;;;39.49
49557;BMP280;35462;45.048;7.666;2022-07-22T09:52:27;99039.19;;;39.56
49557;BMP280;35462;45.048;7.666;2022-07-22T10:07:55;99016.47;;;39.23
49557;BMP280;35462;45.048;7.666;2022-07-22T10:23:13;99002.47;;;39.10
49557;BMP280;35462;45.048;7.666;2022-07-22T10:38:31;98996.09;;;38.73
49557;BMP280;35462;45.048;7.666;2022-07-22T10:53:56;98985.00;;;38.50
49557;BMP280;35462;45.048;7.666;2022-07-22T11:09:13;98969.22;;;38.42
49557;BMP280;35462;45.048;7.666;2022-07-22T11:24:30;98955.09;;;38.26
49557;BMP280;35462;45.048;7.666;2022-07-22T11:39:46;98939.31;;;38.29
49557;BMP280;35462;45.048;7.666;2022-07-22T11:55:14;98916.91;;;38.25
49557;BMP280;35462;45.048;7.666;2022-07-22T12:10:30;98888.72;;;37.94
49557;BMP280;35462;45.048;7.666;2022-07-22T12:25:52;98882.41;;;37.82
49557;BMP280;35462;45.048;7.666;2022-07-22T12:41:24;98858.88;;;37.72
49557;BMP280;35462;45.048;7.666;2022-07-22T12:56:41;98855.53;;;37.73
49557;BMP280;35462;45.048;7.666;2022-07-22T13:11:57;98840.38;;;37.74
49557;BMP280;35462;45.048;7.666;2022-07-22T13:27:13;98815.72;;;37.78
49557;BMP280;35462;45.048;7.666;2022-07-22T13:42:29;98808.84;;;37.79
49557;BMP280;35462;45.048;7.666;2022-07-22T13:57:45;98776.88;;;37.76
49557;BMP280;35462;45.048;7.666;2022-07-22T14:13:02;98779.63;;;37.65
49557;BMP280;35462;45.048;7.666;2022-07-22T14:28:18;98770.84;;;37.68
49557;BMP280;35462;45.048;7.666;2022-07-22T14:43:34;98761.34;;;37.71
49557;BMP280;35462;45.048;7.666;2022-07-22T14:58:50;98742.31;;;37.66
49557;BMP280;35462;45.048;7.666;2022-07-22T15:14:06;98725.00;;;37.54
49557;BMP280;35462;45.048;7.666;2022-07-22T15:29:22;98735.75;;;37.39
49557;BMP280;35462;45.048;7.666;2022-07-22T15:44:39;98727.34;;;37.37
49557;BMP280;35462;45.048;7.666;2022-07-22T15:59:55;98725.53;;;37.30
49557;BMP280;35462;45.048;7.666;2022-07-22T16:15:11;98721.88;;;37.16
49557;BMP280;35462;45.048;7.666;2022-07-22T16:30:27;98719.59;;;37.13
49557;BMP280;35462;45.048;7.666;2022-07-22T16:45:43;98720.03;;;37.09
49557;BMP280;35462;45.048;7.666;2022-07-22T17:00:59;98731.75;;;36.98
49557;BMP280;35462;45.048;7.666;2022-07-22T17:16:15;98732.25;;;36.95
49557;BMP280;35462;45.048;7.666;2022-07-22T17:31:31;98741.28;;;36.74
49557;BMP280;35462;45.048;7.666;2022-07-22T17:46:48;98745.38;;;36.64
49557;BMP280;35462;45.048;7.666;2022-07-22T18:02:04;98752.84;;;36.01
49557;BMP280;35462;45.048;7.666;2022-07-22T18:17:20;98759.75;;;35.82
49557;BMP280;35462;45.048;7.666;2022-07-22T18:32:36;98767.47;;;35.64
49557;BMP280;35462;45.048;7.666;2022-07-22T18:47:52;98781.25;;;35.55
49557;BMP280;35462;45.048;7.666;2022-07-22T19:03:08;98766.91;;;35.47
49557;BMP280;35462;45.048;7.666;2022-07-22T19:18:25;98768.94;;;35.28
49557;BMP280;35462;45.048;7.666;2022-07-22T19:33:41;98810.34;;;34.92
49557;BMP280;35462;45.048;7.666;2022-07-22T19:48:58;98831.56;;;35.08
49557;BMP280;35462;45.048;7.666;2022-07-22T20:04:16;98842.63;;;34.37
49557;BMP280;35462;45.048;7.666;2022-07-22T20:19:33;98840.00;;;33.70
49557;BMP280;35462;45.048;7.666;2022-07-22T20:34:49;98854.88;;;34.27
49557;BMP280;35462;45.048;7.666;2022-07-22T20:50:06;98867.53;;;33.96
49557;BMP280;35462;45.048;7.666;2022-07-22T21:05:22;98881.34;;;34.22
49557;BMP280;35462;45.048;7.666;2022-07-22T21:20:39;98879.56;;;34.17
49557;BMP280;35462;45.048;7.666;2022-07-22T21:35:55;98879.25;;;34.13
49557;BMP280;35462;45.048;7.666;2022-07-22T21:51:11;98869.56;;;33.79
49557;BMP280;35462;45.048;7.666;2022-07-22T22:06:27;98856.78;;;33.40
49557;BMP280;35462;45.048;7.666;2022-07-22T22:21:43;98876.28;;;33.51
49557;BMP280;35462;45.048;7.666;2022-07-22T22:36:59;98874.03;;;33.57
49557;BMP280;35462;45.048;7.666;2022-07-22T22:52:15;98866.75;;;33.36
49557;BMP280;35462;45.048;7.666;2022-07-22T23:07:31;98843.03;;;33.23
49557;BMP280;35462;45.048;7.666;2022-07-22T23:22:47;98816.31;;;32.99
49557;BMP280;35462;45.048;7.666;2022-07-22T23:38:03;98823.84;;;32.99
49557;BMP280;35462;45.048;7.666;2022-07-22T23:53:19;98831.53;;;33.00
